Union Mills, Indiana
Current Conditions -  °F | °C
As of 8:55 AM on Wednesday 22 Oct 2014 (Local Time) from KPPO Reporting Station
Haze Haze  
Wind Chill: 38°   Ceiling: Unl
Heat Index: 43°   Visibility: 5mi
Dew Point: 39°   Wind: 7mph
Humidity: 88%   Direction: 80°E
Pressure: 30.36"   Gusts: NA
Location:  41.49°N, 86.78°W
Report Text: KPPO 221355Z AUTO 08006KT 5SM BR CLR 06/04 A3036 RMK AO2 T00590041
Loading
Personal Weather Stations






























Interactive Weather Map
Tropical Storm Tracking
New forecast layout! Learn more

10-Day Weather Forecast

Advertisements
Track Severe Weather on mobile